PAX377 FIMP-FMEE
Flight info
| Callsign | PAX377 |
|---|---|
| Flight time | 0h 32m |
| Altitude | 22000 |
| Route | SOBAT1 SOBAT SOBAT2R |
| Aircraft | A20N/M-SDE2E3FGHIRWXY/LB1 |
Departure
| Time | 2026-04-17 13:26 |
|---|---|
| Airport | Sir Seewoosagur Ramgoolam International Airport (FIMP) |
Arrival
| Time | 2026-04-17 13:58 |
|---|---|
| Airport | Roland Garros Airport (FMEE) |
| Time | Latitude | Longitude | Altitude | Speed | Heading |
|---|---|---|---|---|---|
| 2026-04-17 13:16 | -20.42669 | 57.67470 | 198 ft | 0 kts | 309° |
| 2026-04-17 13:20 | -20.42669 | 57.67469 | 198 ft | 1 kts | 309° |
| 2026-04-17 13:20 | -20.42654 | 57.67428 | 199 ft | 7 kts | 273° |
| 2026-04-17 13:21 | -20.42652 | 57.67380 | 202 ft | 9 kts | 272° |
| 2026-04-17 13:21 | -20.42629 | 57.67278 | 206 ft | 21 kts | 297° |
| 2026-04-17 13:21 | -20.42575 | 57.67166 | 210 ft | 18 kts | 296° |
| 2026-04-17 13:21 | -20.42527 | 57.67066 | 213 ft | 12 kts | 298° |
| 2026-04-17 13:22 | -20.42495 | 57.67003 | 216 ft | 7 kts | 296° |
| 2026-04-17 13:22 | -20.42479 | 57.66966 | 217 ft | 4 kts | 295° |
| 2026-04-17 13:22 | -20.42469 | 57.66945 | 218 ft | 2 kts | 295° |
| 2026-04-17 13:22 | -20.42464 | 57.66934 | 219 ft | 4 kts | 296° |
| 2026-04-17 13:23 | -20.42427 | 57.66893 | 220 ft | 8 kts | 349° |
| 2026-04-17 13:23 | -20.42372 | 57.66919 | 218 ft | 9 kts | 31° |
| 2026-04-17 13:23 | -20.42343 | 57.66956 | 216 ft | 0 kts | 120° |
| 2026-04-17 13:23 | -20.42350 | 57.66966 | 215 ft | 3 kts | 125° |
| 2026-04-17 13:24 | -20.42366 | 57.66996 | 214 ft | 5 kts | 117° |
| 2026-04-17 13:24 | -20.42369 | 57.67001 | 214 ft | 0 kts | 117° |
| 2026-04-17 13:25 | -20.42370 | 57.67003 | 214 ft | 1 kts | 117° |
| 2026-04-17 13:25 | -20.42458 | 57.67188 | 206 ft | 73 kts | 116° |
| 2026-04-17 13:25 | -20.42843 | 57.67983 | 182 ft | 163 kts | 118° |
| 2026-04-17 13:25 | -20.43478 | 57.69218 | 430 ft | 215 kts | 119° |
| 2026-04-17 13:26 | -20.44200 | 57.70527 | 1565 ft | 213 kts | 121° |
| 2026-04-17 13:26 | -20.45120 | 57.71960 | 2798 ft | 231 kts | 128° |
| 2026-04-17 13:26 | -20.46500 | 57.72925 | 3709 ft | 256 kts | 169° |
| 2026-04-17 13:26 | -20.48286 | 57.72691 | 4618 ft | 266 kts | 207° |
| 2026-04-17 13:27 | -20.50073 | 57.72079 | 5435 ft | 279 kts | 185° |
| 2026-04-17 13:27 | -20.51981 | 57.71545 | 6463 ft | 293 kts | 206° |
| 2026-04-17 13:27 | -20.52174 | 57.71452 | 6577 ft | 294 kts | 206° |
| 2026-04-17 13:28 | -20.52723 | 57.71212 | 6876 ft | 297 kts | 201° |
| 2026-04-17 13:28 | -20.54621 | 57.70309 | 7486 ft | 310 kts | 230° |
| 2026-04-17 13:28 | -20.55426 | 57.68082 | 7031 ft | 346 kts | 278° |
| 2026-04-17 13:28 | -20.54618 | 57.65743 | 7863 ft | 341 kts | 302° |
| 2026-04-17 13:29 | -20.53300 | 57.63659 | 8753 ft | 337 kts | 308° |
| 2026-04-17 13:29 | -20.51797 | 57.61809 | 10145 ft | 321 kts | 319° |
| 2026-04-17 13:29 | -20.50340 | 57.59989 | 11166 ft | 329 kts | 304° |
| 2026-04-17 13:29 | -20.49558 | 57.57633 | 11576 ft | 355 kts | 281° |
| 2026-04-17 13:30 | -20.49210 | 57.54910 | 11551 ft | 390 kts | 284° |
| 2026-04-17 13:30 | -20.48702 | 57.52331 | 10815 ft | 421 kts | 283° |
| 2026-04-17 13:30 | -20.48100 | 57.49095 | 10302 ft | 408 kts | 284° |
| 2026-04-17 13:30 | -20.47469 | 57.46134 | 9676 ft | 400 kts | 282° |
| 2026-04-17 13:31 | -20.47280 | 57.43196 | 9141 ft | 393 kts | 270° |
| 2026-04-17 13:31 | -20.47336 | 57.40440 | 9427 ft | 361 kts | 270° |
| 2026-04-17 13:31 | -20.47595 | 57.37878 | 9628 ft | 336 kts | 256° |
| 2026-04-17 13:31 | -20.48320 | 57.35573 | 9886 ft | 327 kts | 251° |
| 2026-04-17 13:32 | -20.49009 | 57.33314 | 11136 ft | 324 kts | 254° |
| 2026-04-17 13:32 | -20.49628 | 57.30909 | 11770 ft | 345 kts | 257° |
| 2026-04-17 13:32 | -20.50206 | 57.28351 | 12323 ft | 368 kts | 258° |
| 2026-04-17 13:32 | -20.50799 | 57.25609 | 12916 ft | 391 kts | 258° |
| 2026-04-17 13:33 | -20.51418 | 57.22720 | 13499 ft | 414 kts | 258° |
| 2026-04-17 13:33 | -20.52066 | 57.19696 | 14368 ft | 426 kts | 258° |
| 2026-04-17 13:33 | -20.52735 | 57.16585 | 15511 ft | 433 kts | 258° |
| 2026-04-17 13:33 | -20.53410 | 57.13444 | 16645 ft | 439 kts | 258° |
| 2026-04-17 13:34 | -20.54092 | 57.10266 | 17719 ft | 445 kts | 258° |
| 2026-04-17 13:34 | -20.54789 | 57.07013 | 18750 ft | 452 kts | 258° |
| 2026-04-17 13:34 | -20.55491 | 57.03734 | 19728 ft | 458 kts | 258° |
| 2026-04-17 13:34 | -20.56202 | 57.00413 | 20655 ft | 464 kts | 258° |
| 2026-04-17 13:35 | -20.56710 | 56.98038 | 21277 ft | 468 kts | 258° |
| 2026-04-17 13:35 | -20.56806 | 56.97587 | 21391 ft | 469 kts | 258° |
| 2026-04-17 13:35 | -20.57489 | 56.94389 | 22174 ft | 474 kts | 258° |
| 2026-04-17 13:35 | -20.58267 | 56.90741 | 22801 ft | 481 kts | 258° |
| 2026-04-17 13:36 | -20.59006 | 56.87273 | 22890 ft | 481 kts | 258° |
| 2026-04-17 13:36 | -20.59740 | 56.83825 | 22893 ft | 479 kts | 258° |
| 2026-04-17 13:36 | -20.60481 | 56.80344 | 22894 ft | 479 kts | 258° |
| 2026-04-17 13:36 | -20.61214 | 56.76891 | 22894 ft | 480 kts | 258° |
| 2026-04-17 13:37 | -20.61947 | 56.73440 | 22894 ft | 480 kts | 258° |
| 2026-04-17 13:37 | -20.62682 | 56.69973 | 22894 ft | 479 kts | 258° |
| 2026-04-17 13:37 | -20.63412 | 56.66523 | 22895 ft | 479 kts | 258° |
| 2026-04-17 13:37 | -20.64145 | 56.63059 | 22894 ft | 479 kts | 258° |
| 2026-04-17 13:38 | -20.64874 | 56.59608 | 22895 ft | 479 kts | 258° |
| 2026-04-17 13:38 | -20.65609 | 56.56128 | 22894 ft | 479 kts | 258° |
| 2026-04-17 13:38 | -20.66340 | 56.52660 | 22895 ft | 479 kts | 258° |
| 2026-04-17 13:38 | -20.67067 | 56.49210 | 22894 ft | 479 kts | 258° |
| 2026-04-17 13:39 | -20.67796 | 56.45747 | 22895 ft | 479 kts | 258° |
| 2026-04-17 13:39 | -20.68520 | 56.42300 | 22894 ft | 479 kts | 258° |
| 2026-04-17 13:39 | -20.69248 | 56.38834 | 22895 ft | 479 kts | 258° |
| 2026-04-17 13:39 | -20.69973 | 56.35377 | 22894 ft | 479 kts | 258° |
| 2026-04-17 13:40 | -20.70704 | 56.31889 | 22895 ft | 479 kts | 258° |
| 2026-04-17 13:40 | -20.71408 | 56.28442 | 22891 ft | 479 kts | 260° |
| 2026-04-17 13:40 | -20.71770 | 56.24951 | 22888 ft | 465 kts | 268° |
| 2026-04-17 13:40 | -20.71791 | 56.21584 | 22891 ft | 449 kts | 272° |
| 2026-04-17 13:41 | -20.71692 | 56.18297 | 22500 ft | 442 kts | 273° |
| 2026-04-17 13:41 | -20.71581 | 56.15050 | 21900 ft | 436 kts | 273° |
| 2026-04-17 13:41 | -20.71487 | 56.11842 | 21300 ft | 430 kts | 272° |
| 2026-04-17 13:41 | -20.71407 | 56.08667 | 20698 ft | 425 kts | 272° |
| 2026-04-17 13:42 | -20.71333 | 56.05542 | 20098 ft | 419 kts | 272° |
| 2026-04-17 13:42 | -20.71259 | 56.02488 | 19504 ft | 414 kts | 272° |
| 2026-04-17 13:42 | -20.71184 | 55.99431 | 18901 ft | 409 kts | 272° |
| 2026-04-17 13:42 | -20.71135 | 55.97449 | 18507 ft | 405 kts | 272° |
| 2026-04-17 13:43 | -20.71036 | 55.93474 | 17706 ft | 399 kts | 272° |
| 2026-04-17 13:43 | -20.70962 | 55.90535 | 17105 ft | 394 kts | 272° |
| 2026-04-17 13:43 | -20.70888 | 55.87621 | 16503 ft | 390 kts | 272° |
| 2026-04-17 13:43 | -20.70815 | 55.84758 | 15904 ft | 385 kts | 272° |
| 2026-04-17 13:44 | -20.70743 | 55.81924 | 15305 ft | 381 kts | 272° |
| 2026-04-17 13:44 | -20.70671 | 55.79132 | 14709 ft | 377 kts | 272° |
| 2026-04-17 13:44 | -20.70599 | 55.76371 | 14114 ft | 374 kts | 272° |
| 2026-04-17 13:44 | -20.70526 | 55.73587 | 13508 ft | 370 kts | 272° |
| 2026-04-17 13:45 | -20.70455 | 55.70885 | 12918 ft | 367 kts | 272° |
| 2026-04-17 13:45 | -20.70384 | 55.68183 | 12633 ft | 354 kts | 273° |
| 2026-04-17 13:45 | -20.70317 | 55.65641 | 12591 ft | 334 kts | 273° |
| 2026-04-17 13:45 | -20.70240 | 55.63222 | 12355 ft | 324 kts | 273° |
| 2026-04-17 13:46 | -20.70153 | 55.60838 | 11907 ft | 320 kts | 274° |
| 2026-04-17 13:46 | -20.70065 | 55.58477 | 11296 ft | 322 kts | 274° |
| 2026-04-17 13:46 | -20.69974 | 55.56076 | 10614 ft | 326 kts | 274° |
| 2026-04-17 13:46 | -20.69884 | 55.53684 | 10183 ft | 321 kts | 274° |
| 2026-04-17 13:47 | -20.69795 | 55.51310 | 9753 ft | 315 kts | 274° |
| 2026-04-17 13:47 | -20.69708 | 55.49005 | 9328 ft | 311 kts | 274° |
| 2026-04-17 13:47 | -20.69623 | 55.46740 | 9087 ft | 299 kts | 274° |
| 2026-04-17 13:47 | -20.69542 | 55.44591 | 9044 ft | 281 kts | 274° |
| 2026-04-17 13:48 | -20.69466 | 55.42596 | 9009 ft | 262 kts | 274° |
| 2026-04-17 13:48 | -20.69393 | 55.40692 | 8709 ft | 253 kts | 274° |
| 2026-04-17 13:48 | -20.69322 | 55.38854 | 8354 ft | 245 kts | 274° |
| 2026-04-17 13:48 | -20.69253 | 55.37056 | 7995 ft | 238 kts | 274° |
| 2026-04-17 13:49 | -20.69186 | 55.35318 | 7637 ft | 231 kts | 274° |
| 2026-04-17 13:49 | -20.69121 | 55.33644 | 7315 ft | 221 kts | 274° |
| 2026-04-17 13:49 | -20.69060 | 55.32065 | 6995 ft | 210 kts | 274° |
| 2026-04-17 13:49 | -20.69022 | 55.30533 | 6626 ft | 203 kts | 267° |
| 2026-04-17 13:50 | -20.69568 | 55.29194 | 6258 ft | 197 kts | 227° |
| 2026-04-17 13:50 | -20.70737 | 55.28516 | 5901 ft | 190 kts | 187° |
| 2026-04-17 13:50 | -20.72039 | 55.28435 | 5554 ft | 184 kts | 180° |
| 2026-04-17 13:50 | -20.73316 | 55.28373 | 5203 ft | 183 kts | 182° |
| 2026-04-17 13:51 | -20.74578 | 55.28270 | 4858 ft | 182 kts | 184° |
| 2026-04-17 13:51 | -20.75841 | 55.28142 | 4700 ft | 182 kts | 185° |
| 2026-04-17 13:51 | -20.77107 | 55.28041 | 4671 ft | 180 kts | 172° |
| 2026-04-17 13:51 | -20.78162 | 55.28592 | 4667 ft | 168 kts | 127° |
| 2026-04-17 13:52 | -20.78705 | 55.29649 | 4687 ft | 164 kts | 110° |
| 2026-04-17 13:52 | -20.79177 | 55.30776 | 4644 ft | 165 kts | 112° |
| 2026-04-17 13:52 | -20.79650 | 55.31834 | 4477 ft | 152 kts | 112° |
| 2026-04-17 13:52 | -20.80118 | 55.32844 | 4308 ft | 152 kts | 113° |
| 2026-04-17 13:53 | -20.80588 | 55.33847 | 4134 ft | 151 kts | 113° |
| 2026-04-17 13:53 | -20.81058 | 55.34846 | 3959 ft | 151 kts | 113° |
| 2026-04-17 13:53 | -20.81532 | 55.35849 | 3757 ft | 152 kts | 113° |
| 2026-04-17 13:53 | -20.81849 | 55.36519 | 3475 ft | 154 kts | 113° |
| 2026-04-17 13:54 | -20.83025 | 55.39005 | 2439 ft | 156 kts | 114° |
| 2026-04-17 13:54 | -20.83489 | 55.39984 | 2214 ft | 144 kts | 113° |
| 2026-04-17 13:55 | -20.84371 | 55.41854 | 1853 ft | 142 kts | 113° |
| 2026-04-17 13:55 | -20.84810 | 55.42784 | 1662 ft | 141 kts | 113° |
| 2026-04-17 13:55 | -20.85658 | 55.44580 | 1292 ft | 140 kts | 113° |
| 2026-04-17 13:56 | -20.86533 | 55.46433 | 913 ft | 140 kts | 113° |
| 2026-04-17 13:56 | -20.86962 | 55.47341 | 728 ft | 139 kts | 113° |
| 2026-04-17 13:56 | -20.87402 | 55.48274 | 539 ft | 139 kts | 113° |
| 2026-04-17 13:57 | -20.87835 | 55.49192 | 353 ft | 138 kts | 113° |
| 2026-04-17 13:57 | -20.88268 | 55.50111 | 169 ft | 138 kts | 113° |
| 2026-04-17 13:57 | -20.88983 | 55.51659 | 71 ft | 71 kts | 123° |
| 2026-04-17 13:58 | -20.89134 | 55.51934 | 75 ft | 13 kts | 115° |
| 2026-04-17 13:58 | -20.89198 | 55.52081 | 75 ft | 10 kts | 115° |
| 2026-04-17 13:58 | -20.89227 | 55.52146 | 75 ft | 9 kts | 115° |
| 2026-04-17 13:59 | -20.89284 | 55.52229 | 77 ft | 3 kts | 173° |
| 2026-04-17 13:59 | -20.89306 | 55.52229 | 79 ft | 9 kts | 187° |
| 2026-04-17 13:59 | -20.89382 | 55.52193 | 85 ft | 13 kts | 225° |
| 2026-04-17 14:00 | -20.89394 | 55.52111 | 88 ft | 11 kts | 285° |
| 2026-04-17 14:00 | -20.89360 | 55.52032 | 88 ft | 12 kts | 297° |
| 2026-04-17 14:00 | -20.89319 | 55.51946 | 87 ft | 14 kts | 296° |
| 2026-04-17 14:00 | -20.89276 | 55.51854 | 87 ft | 15 kts | 296° |
| 2026-04-17 14:01 | -20.89228 | 55.51750 | 86 ft | 16 kts | 296° |
| 2026-04-17 14:01 | -20.89177 | 55.51640 | 85 ft | 17 kts | 297° |
| 2026-04-17 14:01 | -20.89121 | 55.51522 | 84 ft | 19 kts | 296° |
| 2026-04-17 14:01 | -20.89077 | 55.51430 | 83 ft | 8 kts | 296° |
| 2026-04-17 14:02 | -20.89067 | 55.51409 | 82 ft | 0 kts | 296° |
| 2026-04-17 14:04 | -20.89064 | 55.51402 | 82 ft | 4 kts | 296° |
| 2026-04-17 14:04 | -20.89043 | 55.51357 | 82 ft | 10 kts | 296° |
| 2026-04-17 14:05 | -20.89015 | 55.51296 | 81 ft | 6 kts | 295° |
| 2026-04-17 14:05 | -20.89010 | 55.51276 | 81 ft | 0 kts | 219° |
| 2026-04-17 14:05 | -20.89012 | 55.51275 | 81 ft | 1 kts | 219° |
| 2026-04-17 14:05 | -20.89027 | 55.51265 | 83 ft | 4 kts | 209° |
| 2026-04-17 14:06 | -20.89060 | 55.51245 | 85 ft | 7 kts | 209° |
| 2026-04-17 14:06 | -20.89072 | 55.51238 | 86 ft | 0 kts | 209° |